sensor_id;sensor_type;location;lat;lon;timestamp;temperature;humidity
22319;DHT22;11327;52.334;9.506;2022-08-11T00:01:30;17.90;99.90
22319;DHT22;11327;52.334;9.506;2022-08-11T00:04:54;17.80;99.90
22319;DHT22;11327;52.334;9.506;2022-08-11T00:08:26;17.80;99.90
22319;DHT22;11327;52.334;9.506;2022-08-11T00:11:51;17.80;99.90
22319;DHT22;11327;52.334;9.506;2022-08-11T00:15:12;17.80;99.90
22319;DHT22;11327;52.334;9.506;2022-08-11T00:18:42;17.70;99.90
22319;DHT22;11327;52.334;9.506;2022-08-11T00:22:05;17.60;99.90
22319;DHT22;11327;52.334;9.506;2022-08-11T00:25:26;17.60;99.90
22319;DHT22;11327;52.334;9.506;2022-08-11T00:28:47;17.50;99.90
22319;DHT22;11327;52.334;9.506;2022-08-11T00:32:12;17.50;99.90
22319;DHT22;11327;52.334;9.506;2022-08-11T00:35:34;17.50;99.90
22319;DHT22;11327;52.334;9.506;2022-08-11T00:39:02;17.30;99.90
22319;DHT22;11327;52.334;9.506;2022-08-11T00:42:44;17.50;99.90
22319;DHT22;11327;52.334;9.506;2022-08-11T00:53:35;17.40;99.90
22319;DHT22;11327;52.334;9.506;2022-08-11T00:57:07;17.40;99.90
22319;DHT22;11327;52.334;9.506;2022-08-11T01:00:23;17.30;99.90
22319;DHT22;11327;52.334;9.506;2022-08-11T01:14:32;17.10;99.90
22319;DHT22;11327;52.334;9.506;2022-08-11T01:21:48;17.10;99.90
22319;DHT22;11327;52.334;9.506;2022-08-11T01:44:03;16.90;99.90
22319;DHT22;11327;52.334;9.506;2022-08-11T01:55:31;16.70;99.90
22319;DHT22;11327;52.334;9.506;2022-08-11T01:59:02;16.70;99.90
22319;DHT22;11327;52.334;9.506;2022-08-11T02:14:15;16.40;99.90
22319;DHT22;11327;52.334;9.506;2022-08-11T02:18:03;16.30;99.90
22319;DHT22;11327;52.334;9.506;2022-08-11T02:21:53;16.20;99.90
22319;DHT22;11327;52.334;9.506;2022-08-11T02:25:33;16.20;99.90
22319;DHT22;11327;52.334;9.506;2022-08-11T02:29:02;16.10;99.90
22319;DHT22;11327;52.334;9.506;2022-08-11T02:32:28;16.00;99.90
22319;DHT22;11327;52.334;9.506;2022-08-11T02:36:19;16.00;99.90
22319;DHT22;11327;52.334;9.506;2022-08-11T02:39:45;15.90;99.90
22319;DHT22;11327;52.334;9.506;2022-08-11T02:43:38;15.80;99.90
22319;DHT22;11327;52.334;9.506;2022-08-11T02:54:25;15.80;99.90
22319;DHT22;11327;52.334;9.506;2022-08-11T02:58:01;15.70;99.90
22319;DHT22;11327;52.334;9.506;2022-08-11T03:01:27;15.70;99.90
22319;DHT22;11327;52.334;9.506;2022-08-11T03:12:28;15.50;99.90
22319;DHT22;11327;52.334;9.506;2022-08-11T03:20:38;15.40;99.90
22319;DHT22;11327;52.334;9.506;2022-08-11T03:24:02;15.40;99.90
22319;DHT22;11327;52.334;9.506;2022-08-11T03:27:52;15.30;99.90
22319;DHT22;11327;52.334;9.506;2022-08-11T03:31:33;15.30;99.90
22319;DHT22;11327;52.334;9.506;2022-08-11T03:34:56;15.20;99.90
22319;DHT22;11327;52.334;9.506;2022-08-11T03:38:21;15.20;99.90
22319;DHT22;11327;52.334;9.506;2022-08-11T03:45:56;15.20;99.90
22319;DHT22;11327;52.334;9.506;2022-08-11T03:49:43;15.20;99.90
22319;DHT22;11327;52.334;9.506;2022-08-11T04:11:34;15.00;99.90
22319;DHT22;11327;52.334;9.506;2022-08-11T04:19:14;14.90;99.90
22319;DHT22;11327;52.334;9.506;2022-08-11T04:53:02;14.90;99.90
22319;DHT22;11327;52.334;9.506;2022-08-11T04:56:23;14.90;99.90
22319;DHT22;11327;52.334;9.506;2022-08-11T05:00:09;14.90;99.90
22319;DHT22;11327;52.334;9.506;2022-08-11T05:11:39;15.10;99.90
22319;DHT22;11327;52.334;9.506;2022-08-11T05:15:00;15.20;99.90
22319;DHT22;11327;52.334;9.506;2022-08-11T05:18:49;15.20;99.90
22319;DHT22;11327;52.334;9.506;2022-08-11T05:22:30;15.40;99.90
22319;DHT22;11327;52.334;9.506;2022-08-11T05:26:11;15.50;99.90
22319;DHT22;11327;52.334;9.506;2022-08-11T05:33:48;15.60;99.90
22319;DHT22;11327;52.334;9.506;2022-08-11T05:40:54;15.90;99.90
22319;DHT22;11327;52.334;9.506;2022-08-11T05:44:36;16.10;99.90
22319;DHT22;11327;52.334;9.506;2022-08-11T05:48:17;16.10;99.90
22319;DHT22;11327;52.334;9.506;2022-08-11T05:51:57;16.30;99.90
22319;DHT22;11327;52.334;9.506;2022-08-11T05:55:39;16.40;99.90
22319;DHT22;11327;52.334;9.506;2022-08-11T05:59:22;16.50;99.90
22319;DHT22;11327;52.334;9.506;2022-08-11T06:02:48;16.70;99.90
22319;DHT22;11327;52.334;9.506;2022-08-11T06:06:10;16.80;99.90
22319;DHT22;11327;52.334;9.506;2022-08-11T06:10:06;17.00;99.90
22319;DHT22;11327;52.334;9.506;2022-08-11T06:13:03;17.10;99.90
22319;DHT22;11327;52.334;9.506;2022-08-11T06:16:26;17.30;99.90
22319;DHT22;11327;52.334;9.506;2022-08-11T06:19:51;17.40;99.90
22319;DHT22;11327;52.334;9.506;2022-08-11T06:23:18;17.60;99.90
22319;DHT22;11327;52.334;9.506;2022-08-11T06:26:40;17.70;99.90
22319;DHT22;11327;52.334;9.506;2022-08-11T06:30:05;17.90;99.90
22319;DHT22;11327;52.334;9.506;2022-08-11T06:41:20;18.60;99.90
22319;DHT22;11327;52.334;9.506;2022-08-11T06:45:00;18.80;99.90
22319;DHT22;11327;52.334;9.506;2022-08-11T06:48:20;19.00;99.90
22319;DHT22;11327;52.334;9.506;2022-08-11T06:51:46;19.30;99.90
22319;DHT22;11327;52.334;9.506;2022-08-11T06:55:20;19.50;99.90
22319;DHT22;11327;52.334;9.506;2022-08-11T06:58:39;19.70;99.90
22319;DHT22;11327;52.334;9.506;2022-08-11T07:02:29;20.00;99.90
22319;DHT22;11327;52.334;9.506;2022-08-11T07:05:56;20.20;99.90
22319;DHT22;11327;52.334;9.506;2022-08-11T07:13:22;20.60;99.90
22319;DHT22;11327;52.334;9.506;2022-08-11T07:17:05;20.80;99.90
22319;DHT22;11327;52.334;9.506;2022-08-11T07:20:29;21.10;99.90
22319;DHT22;11327;52.334;9.506;2022-08-11T07:24:12;21.30;99.90
22319;DHT22;11327;52.334;9.506;2022-08-11T07:28:11;21.50;99.90
22319;DHT22;11327;52.334;9.506;2022-08-11T07:31:49;21.60;99.90
22319;DHT22;11327;52.334;9.506;2022-08-11T07:35:22;21.80;99.90
22319;DHT22;11327;52.334;9.506;2022-08-11T07:38:48;22.00;99.90
22319;DHT22;11327;52.334;9.506;2022-08-11T07:42:12;22.20;99.90
22319;DHT22;11327;52.334;9.506;2022-08-11T07:45:34;22.40;99.90
22319;DHT22;11327;52.334;9.506;2022-08-11T07:49:14;22.60;99.90
22319;DHT22;11327;52.334;9.506;2022-08-11T07:52:55;22.60;99.90
22319;DHT22;11327;52.334;9.506;2022-08-11T07:56:17;22.80;99.90
22319;DHT22;11327;52.334;9.506;2022-08-11T07:59:39;22.90;99.90
22319;DHT22;11327;52.334;9.506;2022-08-11T08:03:20;23.20;99.90
22319;DHT22;11327;52.334;9.506;2022-08-11T08:07:01;23.50;99.90
22319;DHT22;11327;52.334;9.506;2022-08-11T08:10:42;23.70;99.90
22319;DHT22;11327;52.334;9.506;2022-08-11T08:14:21;24.00;99.90
22319;DHT22;11327;52.334;9.506;2022-08-11T08:18:03;24.30;99.90
22319;DHT22;11327;52.334;9.506;2022-08-11T08:21:25;24.50;99.90
22319;DHT22;11327;52.334;9.506;2022-08-11T08:24:47;24.70;99.90
22319;DHT22;11327;52.334;9.506;2022-08-11T08:28:12;24.90;99.90
22319;DHT22;11327;52.334;9.506;2022-08-11T08:31:33;25.00;99.90
22319;DHT22;11327;52.334;9.506;2022-08-11T08:34:55;25.20;99.90
22319;DHT22;11327;52.334;9.506;2022-08-11T08:38:18;25.40;99.90
22319;DHT22;11327;52.334;9.506;2022-08-11T08:41:40;25.50;99.90
22319;DHT22;11327;52.334;9.506;2022-08-11T08:45:07;25.70;99.90
22319;DHT22;11327;52.334;9.506;2022-08-11T08:48:30;25.90;99.90
22319;DHT22;11327;52.334;9.506;2022-08-11T08:51:53;26.10;99.90
22319;DHT22;11327;52.334;9.506;2022-08-11T08:55:17;26.20;99.90
22319;DHT22;11327;52.334;9.506;2022-08-11T08:58:40;26.40;99.90
22319;DHT22;11327;52.334;9.506;2022-08-11T09:02:04;26.50;99.90
22319;DHT22;11327;52.334;9.506;2022-08-11T09:05:26;26.80;99.90
22319;DHT22;11327;52.334;9.506;2022-08-11T09:08:47;27.00;99.90
22319;DHT22;11327;52.334;9.506;2022-08-11T09:12:10;27.30;99.90
22319;DHT22;11327;52.334;9.506;2022-08-11T09:15:32;27.40;99.90
22319;DHT22;11327;52.334;9.506;2022-08-11T09:18:54;27.40;99.90
22319;DHT22;11327;52.334;9.506;2022-08-11T09:22:17;27.60;99.90
22319;DHT22;11327;52.334;9.506;2022-08-11T09:25:59;27.90;99.90
22319;DHT22;11327;52.334;9.506;2022-08-11T09:29:39;28.20;98.70
22319;DHT22;11327;52.334;9.506;2022-08-11T09:33:03;28.30;97.90
22319;DHT22;11327;52.334;9.506;2022-08-11T09:36:25;28.40;95.60
22319;DHT22;11327;52.334;9.506;2022-08-11T09:40:06;28.50;94.10
22319;DHT22;11327;52.334;9.506;2022-08-11T09:43:46;28.70;93.70
22319;DHT22;11327;52.334;9.506;2022-08-11T09:47:29;28.70;93.10
22319;DHT22;11327;52.334;9.506;2022-08-11T09:50:53;28.90;90.00
22319;DHT22;11327;52.334;9.506;2022-08-11T09:54:15;29.00;90.60
22319;DHT22;11327;52.334;9.506;2022-08-11T09:57:43;29.20;90.70
22319;DHT22;11327;52.334;9.506;2022-08-11T10:01:24;29.30;89.90
22319;DHT22;11327;52.334;9.506;2022-08-11T10:04:50;29.40;86.80
22319;DHT22;11327;52.334;9.506;2022-08-11T10:08:13;29.40;84.30
22319;DHT22;11327;52.334;9.506;2022-08-11T10:11:37;29.60;86.60
22319;DHT22;11327;52.334;9.506;2022-08-11T10:15:03;29.70;77.60
22319;DHT22;11327;52.334;9.506;2022-08-11T10:18:40;29.70;75.80
22319;DHT22;11327;52.334;9.506;2022-08-11T10:22:04;29.80;75.60
22319;DHT22;11327;52.334;9.506;2022-08-11T10:25:45;29.90;70.30
22319;DHT22;11327;52.334;9.506;2022-08-11T10:29:38;29.90;71.60
22319;DHT22;11327;52.334;9.506;2022-08-11T10:33:19;29.80;70.60
22319;DHT22;11327;52.334;9.506;2022-08-11T10:36:59;30.00;70.10
22319;DHT22;11327;52.334;9.506;2022-08-11T10:40:24;30.20;74.20
22319;DHT22;11327;52.334;9.506;2022-08-11T10:43:45;30.20;67.70
22319;DHT22;11327;52.334;9.506;2022-08-11T10:47:07;30.40;69.50
22319;DHT22;11327;52.334;9.506;2022-08-11T10:50:49;30.60;66.80
22319;DHT22;11327;52.334;9.506;2022-08-11T10:54:30;30.80;65.40
22319;DHT22;11327;52.334;9.506;2022-08-11T10:58:11;30.90;63.90
22319;DHT22;11327;52.334;9.506;2022-08-11T11:01:52;30.80;64.50
22319;DHT22;11327;52.334;9.506;2022-08-11T11:05:30;30.90;62.80
22319;DHT22;11327;52.334;9.506;2022-08-11T11:08:57;30.90;63.60
22319;DHT22;11327;52.334;9.506;2022-08-11T11:12:24;30.90;63.80
22319;DHT22;11327;52.334;9.506;2022-08-11T11:16:04;31.00;64.90
22319;DHT22;11327;52.334;9.506;2022-08-11T11:19:45;31.10;62.20
22319;DHT22;11327;52.334;9.506;2022-08-11T11:23:13;31.20;63.20
22319;DHT22;11327;52.334;9.506;2022-08-11T11:30:07;31.40;61.20
22319;DHT22;11327;52.334;9.506;2022-08-11T11:37:13;31.60;65.10
22319;DHT22;11327;52.334;9.506;2022-08-11T11:40:36;31.60;63.20
22319;DHT22;11327;52.334;9.506;2022-08-11T11:43:58;31.70;65.00
22319;DHT22;11327;52.334;9.506;2022-08-11T11:47:21;31.70;60.80
22319;DHT22;11327;52.334;9.506;2022-08-11T11:50:42;31.70;58.10
22319;DHT22;11327;52.334;9.506;2022-08-11T11:54:04;31.90;61.80
22319;DHT22;11327;52.334;9.506;2022-08-11T11:57:26;31.90;59.20
22319;DHT22;11327;52.334;9.506;2022-08-11T12:01:06;32.00;58.50
22319;DHT22;11327;52.334;9.506;2022-08-11T12:04:36;32.00;59.30
22319;DHT22;11327;52.334;9.506;2022-08-11T12:08:01;32.20;59.70
22319;DHT22;11327;52.334;9.506;2022-08-11T12:11:37;32.30;56.60
22319;DHT22;11327;52.334;9.506;2022-08-11T12:15:17;32.20;58.30
22319;DHT22;11327;52.334;9.506;2022-08-11T12:18:40;32.20;57.10
22319;DHT22;11327;52.334;9.506;2022-08-11T12:22:03;32.20;57.90
22319;DHT22;11327;52.334;9.506;2022-08-11T12:25:44;32.20;56.10
22319;DHT22;11327;52.334;9.506;2022-08-11T12:29:25;32.20;56.10
22319;DHT22;11327;52.334;9.506;2022-08-11T12:32:47;32.30;57.20
22319;DHT22;11327;52.334;9.506;2022-08-11T12:36:09;32.60;57.10
22319;DHT22;11327;52.334;9.506;2022-08-11T12:39:38;32.50;55.60
22319;DHT22;11327;52.334;9.506;2022-08-11T12:43:20;32.40;58.80
22319;DHT22;11327;52.334;9.506;2022-08-11T12:47:00;32.50;56.40
22319;DHT22;11327;52.334;9.506;2022-08-11T12:50:23;32.70;54.00
22319;DHT22;11327;52.334;9.506;2022-08-11T12:54:22;32.70;54.80
22319;DHT22;11327;52.334;9.506;2022-08-11T12:57:44;32.70;52.40
22319;DHT22;11327;52.334;9.506;2022-08-11T13:01:24;32.60;53.10
22319;DHT22;11327;52.334;9.506;2022-08-11T13:05:05;32.60;54.60
22319;DHT22;11327;52.334;9.506;2022-08-11T13:08:28;32.60;52.50
22319;DHT22;11327;52.334;9.506;2022-08-11T13:11:50;32.50;53.10
22319;DHT22;11327;52.334;9.506;2022-08-11T13:15:30;32.60;55.00
22319;DHT22;11327;52.334;9.506;2022-08-11T13:18:51;32.80;53.40
22319;DHT22;11327;52.334;9.506;2022-08-11T13:22:18;32.70;52.70
22319;DHT22;11327;52.334;9.506;2022-08-11T13:25:40;32.80;55.20
22319;DHT22;11327;52.334;9.506;2022-08-11T13:29:01;32.80;51.30
22319;DHT22;11327;52.334;9.506;2022-08-11T13:32:22;32.70;51.60
22319;DHT22;11327;52.334;9.506;2022-08-11T13:35:46;32.80;51.60
22319;DHT22;11327;52.334;9.506;2022-08-11T13:39:09;32.90;52.80
22319;DHT22;11327;52.334;9.506;2022-08-11T13:42:30;32.80;53.00
22319;DHT22;11327;52.334;9.506;2022-08-11T13:45:52;32.90;52.00
22319;DHT22;11327;52.334;9.506;2022-08-11T13:49:16;32.60;50.80
22319;DHT22;11327;52.334;9.506;2022-08-11T13:52:40;32.70;57.20
22319;DHT22;11327;52.334;9.506;2022-08-11T13:56:01;32.70;53.70
22319;DHT22;11327;52.334;9.506;2022-08-11T13:59:23;32.40;51.80
22319;DHT22;11327;52.334;9.506;2022-08-11T14:02:47;32.40;52.40
22319;DHT22;11327;52.334;9.506;2022-08-11T14:06:09;32.40;50.50
22319;DHT22;11327;52.334;9.506;2022-08-11T14:09:37;32.30;51.00
22319;DHT22;11327;52.334;9.506;2022-08-11T14:13:11;32.40;51.20
22319;DHT22;11327;52.334;9.506;2022-08-11T14:16:53;32.50;51.20
22319;DHT22;11327;52.334;9.506;2022-08-11T14:20:17;32.40;51.70
22319;DHT22;11327;52.334;9.506;2022-08-11T14:23:52;32.40;52.10
22319;DHT22;11327;52.334;9.506;2022-08-11T14:27:11;32.50;50.70
22319;DHT22;11327;52.334;9.506;2022-08-11T14:30:32;32.40;48.50
22319;DHT22;11327;52.334;9.506;2022-08-11T14:34:12;32.40;48.60
22319;DHT22;11327;52.334;9.506;2022-08-11T14:37:34;32.50;49.30
22319;DHT22;11327;52.334;9.506;2022-08-11T14:40:56;32.40;48.60
22319;DHT22;11327;52.334;9.506;2022-08-11T14:44:36;32.40;50.10
22319;DHT22;11327;52.334;9.506;2022-08-11T14:48:16;32.30;48.50
22319;DHT22;11327;52.334;9.506;2022-08-11T14:51:37;32.20;48.80
22319;DHT22;11327;52.334;9.506;2022-08-11T14:55:01;32.30;49.20
22319;DHT22;11327;52.334;9.506;2022-08-11T14:58:41;32.40;50.00
22319;DHT22;11327;52.334;9.506;2022-08-11T15:02:03;32.40;50.40
22319;DHT22;11327;52.334;9.506;2022-08-11T15:05:56;32.30;50.10
22319;DHT22;11327;52.334;9.506;2022-08-11T15:09:14;32.40;50.40
22319;DHT22;11327;52.334;9.506;2022-08-11T15:12:39;32.30;49.90
22319;DHT22;11327;52.334;9.506;2022-08-11T15:16:01;32.20;49.50
22319;DHT22;11327;52.334;9.506;2022-08-11T15:19:43;32.10;48.90
22319;DHT22;11327;52.334;9.506;2022-08-11T15:23:08;32.10;47.60
22319;DHT22;11327;52.334;9.506;2022-08-11T15:26:48;32.00;47.00
22319;DHT22;11327;52.334;9.506;2022-08-11T15:30:29;32.00;47.40
22319;DHT22;11327;52.334;9.506;2022-08-11T15:34:11;31.90;47.20
22319;DHT22;11327;52.334;9.506;2022-08-11T15:37:54;31.80;47.10
22319;DHT22;11327;52.334;9.506;2022-08-11T15:41:16;31.80;50.10
22319;DHT22;11327;52.334;9.506;2022-08-11T15:44:59;31.70;50.30
22319;DHT22;11327;52.334;9.506;2022-08-11T15:48:55;31.70;48.30
22319;DHT22;11327;52.334;9.506;2022-08-11T15:52:17;31.70;49.10
22319;DHT22;11327;52.334;9.506;2022-08-11T15:55:38;31.70;48.20
22319;DHT22;11327;52.334;9.506;2022-08-11T15:59:00;31.60;48.80
22319;DHT22;11327;52.334;9.506;2022-08-11T16:02:42;31.70;50.80
22319;DHT22;11327;52.334;9.506;2022-08-11T16:06:12;31.60;49.90
22319;DHT22;11327;52.334;9.506;2022-08-11T16:09:51;31.50;50.90
22319;DHT22;11327;52.334;9.506;2022-08-11T16:13:14;31.60;51.30
22319;DHT22;11327;52.334;9.506;2022-08-11T16:16:37;31.50;50.10
22319;DHT22;11327;52.334;9.506;2022-08-11T16:20:01;31.40;49.90
22319;DHT22;11327;52.334;9.506;2022-08-11T16:23:23;31.30;50.20
22319;DHT22;11327;52.334;9.506;2022-08-11T16:26:47;31.20;50.10
22319;DHT22;11327;52.334;9.506;2022-08-11T16:30:10;31.20;50.20
22319;DHT22;11327;52.334;9.506;2022-08-11T16:33:33;31.20;50.10
22319;DHT22;11327;52.334;9.506;2022-08-11T16:36:56;31.00;50.00
22319;DHT22;11327;52.334;9.506;2022-08-11T16:40:38;31.00;50.60
22319;DHT22;11327;52.334;9.506;2022-08-11T16:43:59;30.90;49.80
22319;DHT22;11327;52.334;9.506;2022-08-11T16:47:39;30.80;50.20
22319;DHT22;11327;52.334;9.506;2022-08-11T16:51:03;30.80;50.90
22319;DHT22;11327;52.334;9.506;2022-08-11T16:54:25;30.70;51.30
22319;DHT22;11327;52.334;9.506;2022-08-11T16:57:46;30.60;51.40
22319;DHT22;11327;52.334;9.506;2022-08-11T17:01:26;30.50;51.00
22319;DHT22;11327;52.334;9.506;2022-08-11T17:04:49;30.30;50.90
22319;DHT22;11327;52.334;9.506;2022-08-11T17:08:39;30.20;51.10
22319;DHT22;11327;52.334;9.506;2022-08-11T17:12:21;30.10;51.10
22319;DHT22;11327;52.334;9.506;2022-08-11T17:16:03;30.00;51.20
22319;DHT22;11327;52.334;9.506;2022-08-11T17:19:30;29.80;51.10
22319;DHT22;11327;52.334;9.506;2022-08-11T17:22:53;29.80;51.40
22319;DHT22;11327;52.334;9.506;2022-08-11T17:26:40;29.60;51.10
22319;DHT22;11327;52.334;9.506;2022-08-11T17:30:17;29.50;51.20
22319;DHT22;11327;52.334;9.506;2022-08-11T17:33:39;29.40;51.50
22319;DHT22;11327;52.334;9.506;2022-08-11T17:37:02;29.40;51.80
22319;DHT22;11327;52.334;9.506;2022-08-11T17:40:24;29.40;51.90
22319;DHT22;11327;52.334;9.506;2022-08-11T17:43:46;29.20;51.60
22319;DHT22;11327;52.334;9.506;2022-08-11T17:47:27;29.20;51.90
22319;DHT22;11327;52.334;9.506;2022-08-11T17:51:11;29.00;52.30
22319;DHT22;11327;52.334;9.506;2022-08-11T17:54:33;29.00;53.00
22319;DHT22;11327;52.334;9.506;2022-08-11T17:58:14;28.90;53.50
22319;DHT22;11327;52.334;9.506;2022-08-11T18:01:47;28.80;53.70
22319;DHT22;11327;52.334;9.506;2022-08-11T18:05:10;28.60;53.80
22319;DHT22;11327;52.334;9.506;2022-08-11T18:08:33;28.60;54.40
22319;DHT22;11327;52.334;9.506;2022-08-11T18:12:15;28.50;55.00
22319;DHT22;11327;52.334;9.506;2022-08-11T18:15:54;28.40;54.80
22319;DHT22;11327;52.334;9.506;2022-08-11T18:19:34;28.30;55.40
22319;DHT22;11327;52.334;9.506;2022-08-11T18:23:19;28.20;55.40
22319;DHT22;11327;52.334;9.506;2022-08-11T18:27:01;28.00;55.90
22319;DHT22;11327;52.334;9.506;2022-08-11T18:30:44;28.00;56.50
22319;DHT22;11327;52.334;9.506;2022-08-11T18:34:29;27.90;57.00
22319;DHT22;11327;52.334;9.506;2022-08-11T18:38:11;27.80;57.50
22319;DHT22;11327;52.334;9.506;2022-08-11T18:41:53;27.70;57.90
22319;DHT22;11327;52.334;9.506;2022-08-11T18:45:36;27.50;58.30
22319;DHT22;11327;52.334;9.506;2022-08-11T18:49:26;27.40;58.70
22319;DHT22;11327;52.334;9.506;2022-08-11T18:53:07;27.30;59.70
22319;DHT22;11327;52.334;9.506;2022-08-11T18:56:48;27.20;60.60
22319;DHT22;11327;52.334;9.506;2022-08-11T19:00:28;27.10;61.20
22319;DHT22;11327;52.334;9.506;2022-08-11T19:04:10;26.90;61.40
22319;DHT22;11327;52.334;9.506;2022-08-11T19:07:52;26.80;62.00
22319;DHT22;11327;52.334;9.506;2022-08-11T19:11:33;26.70;63.10
22319;DHT22;11327;52.334;9.506;2022-08-11T19:15:14;26.60;63.30
22319;DHT22;11327;52.334;9.506;2022-08-11T19:18:55;26.40;63.90
22319;DHT22;11327;52.334;9.506;2022-08-11T19:22:36;26.30;64.80
22319;DHT22;11327;52.334;9.506;2022-08-11T19:26:16;26.20;65.20
22319;DHT22;11327;52.334;9.506;2022-08-11T19:29:56;26.20;65.00
22319;DHT22;11327;52.334;9.506;2022-08-11T19:33:37;26.10;66.30
22319;DHT22;11327;52.334;9.506;2022-08-11T19:37:17;25.90;67.20
22319;DHT22;11327;52.334;9.506;2022-08-11T19:40:59;25.70;68.00
22319;DHT22;11327;52.334;9.506;2022-08-11T19:44:40;25.60;69.80
22319;DHT22;11327;52.334;9.506;2022-08-11T19:48:21;25.40;72.00
22319;DHT22;11327;52.334;9.506;2022-08-11T19:52:01;25.20;73.20
22319;DHT22;11327;52.334;9.506;2022-08-11T19:55:42;25.00;74.20
22319;DHT22;11327;52.334;9.506;2022-08-11T19:59:22;24.90;75.00
22319;DHT22;11327;52.334;9.506;2022-08-11T20:03:05;24.70;76.80
22319;DHT22;11327;52.334;9.506;2022-08-11T20:06:45;24.60;79.40
22319;DHT22;11327;52.334;9.506;2022-08-11T20:10:26;24.40;80.70
22319;DHT22;11327;52.334;9.506;2022-08-11T20:14:08;24.20;82.50
22319;DHT22;11327;52.334;9.506;2022-08-11T20:17:48;24.00;83.90
22319;DHT22;11327;52.334;9.506;2022-08-11T20:21:28;23.80;85.70
22319;DHT22;11327;52.334;9.506;2022-08-11T20:25:08;23.60;86.80
22319;DHT22;11327;52.334;9.506;2022-08-11T20:28:49;23.50;89.00
22319;DHT22;11327;52.334;9.506;2022-08-11T20:32:30;23.40;90.00
22319;DHT22;11327;52.334;9.506;2022-08-11T20:36:10;23.30;90.60
22319;DHT22;11327;52.334;9.506;2022-08-11T20:39:52;23.20;91.10
22319;DHT22;11327;52.334;9.506;2022-08-11T20:43:33;23.10;92.00
22319;DHT22;11327;52.334;9.506;2022-08-11T20:47:15;23.00;92.40
22319;DHT22;11327;52.334;9.506;2022-08-11T20:50:56;22.90;93.40
22319;DHT22;11327;52.334;9.506;2022-08-11T20:54:37;22.80;94.20
22319;DHT22;11327;52.334;9.506;2022-08-11T20:58:17;22.70;94.80
22319;DHT22;11327;52.334;9.506;2022-08-11T21:01:58;22.60;94.50
22319;DHT22;11327;52.334;9.506;2022-08-11T21:05:38;22.40;94.80
22319;DHT22;11327;52.334;9.506;2022-08-11T21:09:21;22.20;95.00
22319;DHT22;11327;52.334;9.506;2022-08-11T21:13:03;22.10;95.50
22319;DHT22;11327;52.334;9.506;2022-08-11T21:16:44;22.00;96.20
22319;DHT22;11327;52.334;9.506;2022-08-11T21:20:26;21.90;96.60
22319;DHT22;11327;52.334;9.506;2022-08-11T21:24:08;21.80;97.50
22319;DHT22;11327;52.334;9.506;2022-08-11T21:27:50;21.80;98.20
22319;DHT22;11327;52.334;9.506;2022-08-11T21:31:30;21.70;98.30
22319;DHT22;11327;52.334;9.506;2022-08-11T21:35:11;21.70;99.40
22319;DHT22;11327;52.334;9.506;2022-08-11T21:38:50;21.60;99.90
22319;DHT22;11327;52.334;9.506;2022-08-11T21:42:33;21.50;99.90
22319;DHT22;11327;52.334;9.506;2022-08-11T21:46:14;21.40;99.90
22319;DHT22;11327;52.334;9.506;2022-08-11T21:49:54;21.30;99.90
22319;DHT22;11327;52.334;9.506;2022-08-11T21:53:34;21.20;99.90
22319;DHT22;11327;52.334;9.506;2022-08-11T21:57:15;21.10;99.90
22319;DHT22;11327;52.334;9.506;2022-08-11T22:00:55;21.10;99.90
22319;DHT22;11327;52.334;9.506;2022-08-11T22:04:34;21.10;99.90
22319;DHT22;11327;52.334;9.506;2022-08-11T22:08:14;21.10;99.90
22319;DHT22;11327;52.334;9.506;2022-08-11T22:11:54;21.00;99.90
22319;DHT22;11327;52.334;9.506;2022-08-11T22:15:36;20.90;99.90
22319;DHT22;11327;52.334;9.506;2022-08-11T22:19:16;20.80;99.90
22319;DHT22;11327;52.334;9.506;2022-08-11T22:22:57;20.70;99.90
22319;DHT22;11327;52.334;9.506;2022-08-11T22:26:37;20.70;99.90
22319;DHT22;11327;52.334;9.506;2022-08-11T22:30:17;20.60;99.90
22319;DHT22;11327;52.334;9.506;2022-08-11T22:33:56;20.50;99.90
22319;DHT22;11327;52.334;9.506;2022-08-11T22:37:36;20.40;99.90
22319;DHT22;11327;52.334;9.506;2022-08-11T22:41:17;20.40;99.90
22319;DHT22;11327;52.334;9.506;2022-08-11T22:44:57;20.30;99.90
22319;DHT22;11327;52.334;9.506;2022-08-11T22:48:36;20.20;99.90
22319;DHT22;11327;52.334;9.506;2022-08-11T22:52:17;20.10;99.90
22319;DHT22;11327;52.334;9.506;2022-08-11T22:55:58;20.00;99.90
22319;DHT22;11327;52.334;9.506;2022-08-11T22:59:39;20.00;99.90
22319;DHT22;11327;52.334;9.506;2022-08-11T23:03:19;19.90;99.90
22319;DHT22;11327;52.334;9.506;2022-08-11T23:06:59;19.80;99.90
22319;DHT22;11327;52.334;9.506;2022-08-11T23:10:39;19.70;99.90
22319;DHT22;11327;52.334;9.506;2022-08-11T23:14:20;19.70;99.90
22319;DHT22;11327;52.334;9.506;2022-08-11T23:18:01;19.60;99.90
22319;DHT22;11327;52.334;9.506;2022-08-11T23:21:40;19.60;99.90
22319;DHT22;11327;52.334;9.506;2022-08-11T23:25:21;19.50;99.90
22319;DHT22;11327;52.334;9.506;2022-08-11T23:29:01;19.40;99.90
22319;DHT22;11327;52.334;9.506;2022-08-11T23:32:44;19.40;99.90
22319;DHT22;11327;52.334;9.506;2022-08-11T23:36:23;19.30;99.90
22319;DHT22;11327;52.334;9.506;2022-08-11T23:40:03;19.30;99.90
22319;DHT22;11327;52.334;9.506;2022-08-11T23:43:43;19.30;99.90
22319;DHT22;11327;52.334;9.506;2022-08-11T23:47:23;19.30;99.90
22319;DHT22;11327;52.334;9.506;2022-08-11T23:51:04;19.30;99.90
22319;DHT22;11327;52.334;9.506;2022-08-11T23:54:45;19.20;99.90
22319;DHT22;11327;52.334;9.506;2022-08-11T23:58:25;19.10;99.90
